Time;durP1;ratioP1;P1;durP2;ratioP2;P2;SDS_P1;SDS_P2;PMS_P1;PMS_P2;Temp;Humidity;BMP_temperature;BMP_pressure;BME280_temperature;BME280_humidity;BME280_pressure;Samples;Min_cycle;Max_cycle;Signal;HPM_P1;HPM_P2
2022/01/19 00:01:42;;;;;;;56.60;22.08;;;2.20;99.90;;;2.06;64.21;100397.94;5008914;28;20440;-82
2022/01/19 00:04:08;;;;;;;50.58;20.73;;;2.20;99.90;;;2.07;64.19;100394.25;5021491;28;20431;-82
2022/01/19 00:06:34;;;;;;;57.22;20.55;;;2.20;99.90;;;2.14;63.65;100389.84;5023556;28;20131;-82
2022/01/19 00:09:00;;;;;;;55.40;18.77;;;2.20;99.90;;;2.18;64.04;100379.59;5023920;28;20170;-82
2022/01/19 00:11:26;;;;;;;58.55;19.63;;;2.30;99.90;;;2.16;63.42;100381.59;5036787;28;20068;-82
2022/01/19 00:13:52;;;;;;;70.25;20.77;;;2.30;99.90;;;2.21;63.74;100381.06;5007310;28;20510;-82
2022/01/19 00:16:18;;;;;;;70.85;22.30;;;2.30;99.90;;;2.18;64.03;100387.63;5023074;28;20101;-82
2022/01/19 00:18:45;;;;;;;59.20;21.42;;;2.30;99.90;;;2.12;64.25;100377.63;5021792;28;20472;-82
2022/01/19 00:21:11;;;;;;;63.95;21.50;;;2.30;99.90;;;2.14;64.26;100370.28;5006674;28;20048;-82
2022/01/19 00:23:37;;;;;;;62.22;23.77;;;2.30;99.90;;;2.13;63.82;100372.09;5036185;28;20120;-82
2022/01/19 00:26:03;;;;;;;62.00;20.98;;;2.30;99.90;;;2.15;64.79;100371.91;5031143;28;20080;-82
2022/01/19 00:28:28;;;;;;;55.47;21.67;;;2.30;99.90;;;2.17;64.62;100364.53;5022348;28;20067;-82
2022/01/19 00:30:55;;;;;;;64.55;21.33;;;2.30;99.90;;;2.19;64.26;100365.22;5015426;28;20072;-82
2022/01/19 00:33:21;;;;;;;66.05;23.70;;;2.30;99.90;;;2.13;64.26;100366.75;5005795;28;20480;-82
2022/01/19 00:35:48;;;;;;;78.90;24.50;;;2.30;99.90;;;2.12;64.52;100353.56;5018847;28;20276;-82
2022/01/19 00:38:14;;;;;;;67.32;22.15;;;2.30;99.90;;;2.08;65.39;100360.25;5021232;28;20051;-82
2022/01/19 00:40:40;;;;;;;68.18;22.15;;;2.30;99.90;;;2.08;64.99;100357.59;4999724;28;20041;-82
2022/01/19 00:43:06;;;;;;;66.63;20.25;;;2.20;99.90;;;2.10;64.98;100359.06;5025778;28;20041;-82
2022/01/19 00:45:33;;;;;;;79.45;21.35;;;2.30;99.90;;;2.18;64.89;100364.34;5022433;28;20473;-82
2022/01/19 00:47:59;;;;;;;85.78;24.75;;;2.30;99.90;;;2.15;65.25;100369.25;5034165;28;20453;-82
2022/01/19 00:50:29;;;;;;;82.03;26.65;;;2.30;99.90;;;2.15;64.73;100369.25;5037983;28;20036;-82
2022/01/19 00:52:55;;;;;;;80.82;27.08;;;2.30;99.90;;;2.07;65.12;100375.50;5007621;28;20042;-82
2022/01/19 00:55:23;;;;;;;73.40;26.23;;;2.30;99.90;;;2.11;65.26;100376.81;5007100;28;20037;-82
2022/01/19 00:57:48;;;;;;;101.95;29.95;;;2.30;99.90;;;2.18;65.15;100371.56;5006640;28;20617;-82
2022/01/19 01:00:21;;;;;;;85.13;27.50;;;2.30;99.90;;;2.23;65.43;100374.53;5010855;28;20119;-82
2022/01/19 01:02:47;;;;;;;76.15;25.38;;;2.30;99.90;;;2.22;65.37;100382.75;5018272;28;20053;-82
2022/01/19 01:05:13;;;;;;;82.28;25.90;;;2.40;99.90;;;2.21;65.68;100373.03;5005218;28;20338;-82
2022/01/19 01:07:40;;;;;;;83.38;27.67;;;2.40;99.90;;;2.21;65.03;100373.88;5021162;28;20075;-82
2022/01/19 01:10:12;;;;;;;88.57;27.52;;;2.40;99.90;;;2.24;65.60;100361.97;5063511;28;20041;-82
2022/01/19 01:15:46;;;;;;;89.28;25.00;;;2.40;99.90;;;2.27;65.15;100362.44;5024755;28;20029;-82
2022/01/19 01:18:19;;;;;;;86.40;27.77;;;2.40;99.90;;;2.34;65.10;100344.66;5033008;28;20128;-82
2022/01/19 01:20:49;;;;;;;85.43;28.95;;;2.40;99.90;;;2.28;65.38;100323.94;5040840;28;20583;-82
2022/01/19 01:23:15;;;;;;;86.32;27.75;;;2.40;99.90;;;2.27;65.67;100335.69;5024128;28;20468;-82
2022/01/19 01:25:41;;;;;;;93.05;28.10;;;2.40;99.90;;;2.31;65.20;100336.97;5023094;28;20052;-82
2022/01/19 01:28:07;;;;;;;91.35;30.30;;;2.40;99.90;;;2.37;65.10;100320.19;5024710;28;20484;-82
2022/01/19 01:30:34;;;;;;;93.60;27.17;;;2.40;99.90;;;2.45;64.71;100315.75;5021616;28;20148;-82
2022/01/19 01:33:00;;;;;;;77.47;28.17;;;2.50;99.90;;;2.48;64.53;100318.88;5036163;28;20036;-82
2022/01/19 01:35:26;;;;;;;100.22;29.40;;;2.50;99.90;;;2.45;64.53;100311.22;5023757;28;20449;-82
2022/01/19 01:37:52;;;;;;;94.55;29.60;;;2.50;99.90;;;2.46;65.03;100306.69;5008450;28;20044;-82
2022/01/19 01:40:18;;;;;;;91.38;28.40;;;2.50;99.90;;;2.37;64.26;100304.09;5007771;28;20504;-82
2022/01/19 01:42:44;;;;;;;84.07;28.42;;;2.50;99.90;;;2.42;64.54;100300.03;5024062;28;20040;-82
2022/01/19 01:45:13;;;;;;;85.35;26.40;;;2.50;99.90;;;2.39;64.32;100298.53;5032737;28;20103;-82
2022/01/19 01:47:44;;;;;;;94.72;27.58;;;2.50;99.90;;;2.37;64.77;100273.81;5033805;28;20443;-82
2022/01/19 01:55:23;;;;;;;72.40;23.52;;;2.50;99.90;;;2.47;64.67;100244.06;5034836;28;20052;-82
2022/01/19 01:57:49;;;;;;;75.45;23.08;;;2.50;99.90;;;2.45;64.61;100244.25;5021686;28;20041;-82
2022/01/19 02:00:20;;;;;;;78.50;24.55;;;2.60;99.90;;;2.44;65.20;100245.25;5004371;28;20393;-82
2022/01/19 02:02:47;;;;;;;76.90;24.00;;;2.60;99.90;;;2.47;64.46;100249.41;5004761;28;20459;-82
2022/01/19 02:05:17;;;;;;;65.53;22.73;;;2.60;99.90;;;2.49;64.82;100244.72;5040040;28;20094;-82
2022/01/19 02:08:17;;;;;;;81.85;25.13;;;2.60;99.90;;;2.47;64.20;100246.75;5002781;28;20059;-82
2022/01/19 02:11:29;;;;;;;66.03;22.60;;;2.60;99.90;;;2.50;64.21;100249.06;5025624;28;20126;-82
2022/01/19 02:22:03;;;;;;;78.90;22.45;;;2.60;99.90;;;2.51;64.49;100226.63;5044129;28;20387;-82
2022/01/19 02:24:33;;;;;;;71.05;21.77;;;2.60;99.90;;;2.54;64.13;100229.75;5037491;28;20600;-82
2022/01/19 02:40:58;;;;;;;64.95;20.77;;;2.60;99.90;;;2.36;64.00;100216.72;5042761;28;20041;-82
2022/01/19 02:43:27;;;;;;;62.38;19.88;;;2.50;99.90;;;2.42;64.28;100219.69;5003409;28;20093;-82
2022/01/19 02:51:22;;;;;;;69.97;20.83;;;2.50;99.90;;;2.44;63.63;100215.81;5022968;28;20387;-82
2022/01/19 02:53:49;;;;;;;55.80;18.30;;;2.60;99.90;;;2.47;63.80;100215.47;5002177;28;20128;-82
2022/01/19 02:56:37;;;;;;;52.88;19.63;;;2.60;99.90;;;2.55;64.08;100219.88;5034961;28;20320;-82
2022/01/19 02:59:14;;;;;;;59.50;19.88;;;2.60;99.90;;;2.50;64.17;100207.03;5011337;28;20124;-82
2022/01/19 03:09:45;;;;;;;52.03;18.98;;;2.70;99.90;;;2.59;64.24;100179.13;5020393;28;20043;-82
2022/01/19 03:12:11;;;;;;;56.92;17.15;;;2.70;99.90;;;2.56;63.81;100189.38;5018314;28;20056;-82
2022/01/19 03:14:37;;;;;;;56.47;18.35;;;2.70;99.90;;;2.61;64.28;100178.94;5021344;28;20111;-82
2022/01/19 03:17:05;;;;;;;54.10;19.02;;;2.70;99.90;;;2.58;64.37;100182.00;5023255;28;20454;-82
2022/01/19 03:19:31;;;;;;;52.15;18.05;;;2.70;99.90;;;2.53;64.00;100179.06;5003674;28;20051;-82
2022/01/19 03:21:57;;;;;;;60.65;18.60;;;2.70;99.90;;;2.54;63.72;100172.66;5033586;28;20128;-82
2022/01/19 03:24:24;;;;;;;38.10;15.50;;;2.70;99.90;;;2.51;63.60;100176.56;5018436;28;20063;-83
2022/01/19 03:26:50;;;;;;;46.63;16.17;;;2.70;99.90;;;2.46;64.01;100162.88;5020579;28;20135;-82
2022/01/19 03:29:16;;;;;;;37.75;15.30;;;2.70;99.90;;;2.51;63.96;100160.47;5040259;28;20485;-82
2022/01/19 03:31:42;;;;;;;53.58;17.65;;;2.70;99.90;;;2.52;63.13;100158.63;5004564;28;20491;-82
2022/01/19 03:34:08;;;;;;;67.38;18.17;;;2.70;99.90;;;2.53;63.41;100157.63;5040101;28;20028;-82
2022/01/19 03:36:34;;;;;;;52.85;16.55;;;2.70;99.90;;;2.51;63.00;100146.25;5004083;28;20108;-82
2022/01/19 03:39:00;;;;;;;42.90;15.68;;;2.60;99.90;;;2.53;63.52;100147.72;5009362;28;20139;-82
2022/01/19 03:41:26;;;;;;;45.33;17.23;;;2.60;99.90;;;2.51;62.60;100147.09;5020819;28;20123;-82
2022/01/19 03:43:52;;;;;;;42.88;15.50;;;2.60;99.90;;;2.53;62.92;100144.22;5006344;28;20054;-82
2022/01/19 03:46:21;;;;;;;50.10;17.73;;;2.70;99.90;;;2.53;63.00;100144.22;5021369;28;20606;-82
2022/01/19 03:48:56;;;;;;;52.22;17.23;;;2.70;99.90;;;2.51;62.89;100141.72;5041319;28;20456;-82
2022/01/19 03:51:23;;;;;;;52.63;16.85;;;2.60;99.90;;;2.55;63.36;100142.19;5024384;28;20522;-82
2022/01/19 03:53:49;;;;;;;50.50;16.92;;;2.60;99.90;;;2.57;62.97;100143.66;5004640;28;20051;-82
2022/01/19 03:56:16;;;;;;;57.10;16.13;;;2.60;99.90;;;2.54;61.04;100132.47;5003115;28;20049;-82
2022/01/19 03:58:42;;;;;;;46.25;18.83;;;2.70;99.90;;;2.60;62.61;100142.47;5039347;28;20037;-82
2022/01/19 04:01:09;;;;;;;43.25;16.10;;;2.70;99.90;;;2.62;61.98;100143.13;5017839;28;20064;-82
2022/01/19 04:03:57;;;;;;;64.10;18.25;;;2.70;99.90;;;2.67;62.48;100143.38;5002375;28;20100;-82
2022/01/19 04:06:25;;;;;;;55.35;16.92;;;2.70;99.90;;;2.69;62.33;100137.81;5022994;28;20475;-82
2022/01/19 04:08:51;;;;;;;47.95;16.98;;;2.70;99.90;;;2.69;62.41;100135.13;5023439;28;20091;-82
2022/01/19 04:11:20;;;;;;;54.17;16.35;;;2.70;99.90;;;2.72;62.71;100140.09;5026777;28;20040;-82
2022/01/19 04:14:21;;;;;;;61.22;17.65;;;2.70;99.90;;;2.72;62.65;100140.09;5022172;28;20093;-82
2022/01/19 04:16:45;;;;;;;53.15;17.15;;;2.80;99.90;;;2.72;62.65;100140.09;5053444;28;20037;-82
2022/01/19 04:19:33;;;;;;;59.85;16.85;;;2.80;99.90;;;2.76;61.64;100138.72;5042872;28;20033;-82
2022/01/19 04:22:02;;;;;;;53.30;18.25;;;2.80;99.90;;;2.78;62.36;100125.97;5041952;28;20052;-82
2022/01/19 04:24:28;;;;;;;56.38;19.90;;;2.80;99.90;;;2.73;62.21;100114.97;5022955;28;20120;-82
2022/01/19 04:29:40;;;;;;;51.03;20.50;;;2.80;99.90;;;2.67;61.83;100113.03;5052133;28;20518;-82
2022/01/19 04:32:12;;;;;;;47.70;19.38;;;2.80;99.90;;;2.70;61.86;100105.47;5004867;28;20174;-82
2022/01/19 04:34:39;;;;;;;58.13;17.67;;;2.80;99.90;;;2.70;61.76;100105.47;5020311;28;20037;-82
2022/01/19 05:04:49;;;;;;;45.72;15.50;;;2.70;99.90;;;2.63;62.30;100053.66;5051501;28;20044;-82
2022/01/19 05:07:24;;;;;;;37.10;13.32;;;2.70;99.90;;;2.62;62.43;100054.69;5023208;28;20087;-82
2022/01/19 05:15:09;;;;;;;50.38;15.63;;;2.70;99.90;;;2.54;61.63;100039.56;5030912;28;20476;-82
2022/01/19 05:17:36;;;;;;;40.75;16.17;;;2.60;99.90;;;2.50;62.08;100035.63;5036640;28;20041;-82
2022/01/19 05:20:07;;;;;;;49.70;16.50;;;2.70;99.90;;;2.46;61.89;100031.66;5022163;28;20044;-82
2022/01/19 05:22:33;;;;;;;52.53;15.80;;;2.60;99.90;;;2.43;62.00;100032.03;5037983;28;20045;-82
2022/01/19 05:24:59;;;;;;;36.20;15.02;;;2.60;99.90;;;2.44;62.06;100027.50;5004610;28;20044;-82
2022/01/19 05:27:25;;;;;;;47.05;17.58;;;2.60;99.90;;;2.43;61.96;100025.88;5034753;28;20048;-82
2022/01/19 05:29:51;;;;;;;45.50;17.27;;;2.50;99.90;;;2.39;61.88;100028.94;5024233;28;20056;-82
2022/01/19 05:32:17;;;;;;;42.15;15.52;;;2.50;99.90;;;2.38;62.37;100032.59;5023028;28;20068;-82
2022/01/19 05:34:43;;;;;;;42.20;15.60;;;2.50;99.90;;;2.35;62.38;100027.63;5037683;28;20407;-82
2022/01/19 05:37:09;;;;;;;40.45;16.27;;;2.50;99.90;;;2.34;62.84;100017.97;5026450;28;20070;-82
2022/01/19 05:39:35;;;;;;;48.70;13.98;;;2.50;99.90;;;2.35;62.20;100018.78;5017419;28;20067;-82
2022/01/19 05:42:01;;;;;;;47.75;15.18;;;2.50;99.90;;;2.35;62.58;100021.47;5008583;28;20094;-83
2022/01/19 05:44:27;;;;;;;43.38;15.85;;;2.40;99.90;;;2.41;62.73;100015.31;5035295;28;20041;-83
2022/01/19 05:46:53;;;;;;;42.00;16.10;;;2.50;99.90;;;2.46;62.50;100004.03;4998205;28;20060;-82
2022/01/19 05:49:19;;;;;;;44.65;16.98;;;2.60;99.90;;;2.45;62.98;99994.38;5016698;28;20037;-82
2022/01/19 05:51:47;;;;;;;37.58;15.00;;;2.60;99.90;;;2.51;62.72;99990.91;5004338;28;20141;-82
2022/01/19 05:54:13;;;;;;;47.35;15.98;;;2.60;99.90;;;2.46;62.65;99986.13;5019417;28;20413;-82
2022/01/19 05:56:39;;;;;;;46.17;15.98;;;2.60;99.90;;;2.47;62.72;99989.63;5032582;28;20144;-82
2022/01/19 05:59:05;;;;;;;40.08;16.65;;;2.60;99.90;;;2.42;62.42;99989.38;5002054;28;20124;-82
2022/01/19 06:01:31;;;;;;;50.42;18.90;;;2.60;99.90;;;2.34;62.58;99991.19;5022045;28;20044;-82
2022/01/19 06:03:57;;;;;;;40.63;17.60;;;2.60;99.90;;;2.31;62.88;99983.50;5038978;28;20068;-82
2022/01/19 06:06:24;;;;;;;49.05;19.27;;;2.60;99.90;;;2.28;62.76;99985.75;5016319;28;20091;-82
2022/01/19 06:09:00;;;;;;;47.00;18.20;;;2.50;99.90;;;2.23;63.33;99978.28;5006026;28;20480;-82
2022/01/19 06:11:26;;;;;;;56.05;18.95;;;2.50;99.90;;;2.17;63.23;99982.56;5005229;28;20559;-82
2022/01/19 06:13:52;;;;;;;33.35;14.35;;;2.50;99.90;;;2.15;63.36;99984.59;5038611;28;20039;-82
2022/01/19 06:16:19;;;;;;;49.13;17.30;;;2.40;99.90;;;2.17;63.75;99981.72;5035476;28;20048;-82
2022/01/19 06:18:48;;;;;;;45.45;15.80;;;2.40;99.90;;;2.18;63.29;99978.84;4999468;28;20048;-82
2022/01/19 06:21:16;;;;;;;47.47;18.95;;;2.40;99.90;;;2.13;62.70;99986.63;5001039;28;20040;-82
2022/01/19 06:23:42;;;;;;;55.53;18.55;;;2.40;99.90;;;2.10;63.54;99978.16;5019564;28;20045;-82
2022/01/19 06:26:08;;;;;;;53.38;17.50;;;2.40;99.90;;;2.11;63.10;99982.47;5017139;28;20049;-82
2022/01/19 06:28:34;;;;;;;55.78;18.27;;;2.30;99.90;;;2.08;62.67;99977.50;5002907;28;20242;-82
2022/01/19 06:31:01;;;;;;;47.92;16.13;;;2.30;99.90;;;2.04;63.68;99973.56;5020725;28;20040;-82
2022/01/19 06:33:28;;;;;;;44.97;16.15;;;2.30;99.90;;;1.92;62.79;99966.00;5033697;28;20085;-81
2022/01/19 06:35:55;;;;;;;37.42;14.30;;;2.20;99.90;;;1.81;63.10;99963.03;5037049;28;20338;-80
2022/01/19 06:38:24;;;;;;;40.58;14.35;;;2.10;99.90;;;1.66;63.03;99960.38;5023001;28;20037;-80
2022/01/19 06:40:50;;;;;;;32.65;15.43;;;2.00;99.90;;;1.49;63.46;99952.53;5027662;28;20051;-80
2022/01/19 06:43:16;;;;;;;48.60;15.77;;;1.90;99.90;;;1.33;63.54;99957.28;5039848;28;20825;-80
2022/01/19 06:45:42;;;;;;;36.70;13.75;;;1.70;99.90;;;1.25;62.99;99953.66;5021290;28;20041;-80
2022/01/19 06:48:09;;;;;;;45.67;15.48;;;1.60;99.90;;;1.17;63.56;99958.25;5038757;28;20045;-81
2022/01/19 06:50:35;;;;;;;41.42;13.82;;;1.50;99.90;;;1.07;63.50;99958.56;5000153;28;20076;-80
2022/01/19 06:53:01;;;;;;;35.17;14.30;;;1.40;99.90;;;0.99;63.45;99956.81;5020756;28;20533;-81
2022/01/19 06:55:27;;;;;;;37.30;12.40;;;1.30;99.90;;;0.92;63.50;99961.22;4998238;28;20384;-80
2022/01/19 06:57:56;;;;;;;41.38;14.73;;;1.20;99.90;;;0.88;63.36;99953.75;5038290;28;20041;-81
2022/01/19 07:00:23;;;;;;;39.88;13.85;;;1.10;99.90;;;0.76;64.13;99948.81;5036842;28;20040;-81
2022/01/19 07:02:50;;;;;;;45.90;16.73;;;1.00;99.90;;;0.64;64.19;99953.78;5017282;28;20049;-82
2022/01/19 07:05:16;;;;;;;28.23;13.57;;;1.00;99.90;;;0.62;64.68;99958.47;5028961;28;20041;-81
2022/01/19 07:07:42;;;;;;;43.92;14.10;;;1.00;99.90;;;0.61;64.22;99954.16;5023160;28;20064;-82
2022/01/19 07:10:10;;;;;;;30.13;12.50;;;0.90;99.90;;;0.58;64.16;99951.84;5015923;28;20037;-82
2022/01/19 07:12:36;;;;;;;36.88;11.77;;;0.90;99.90;;;0.63;64.29;99945.94;5000095;28;20045;-82
2022/01/19 07:15:03;;;;;;;31.90;13.02;;;0.80;99.90;;;0.61;64.31;99948.81;5050063;28;20048;-81
2022/01/19 07:17:29;;;;;;;34.42;13.98;;;0.90;99.90;;;0.57;64.64;99942.16;5000659;28;20052;-82
2022/01/19 07:19:55;;;;;;;29.10;12.75;;;0.90;99.90;;;0.55;64.28;99938.84;5000806;28;20048;-82
2022/01/19 07:22:22;;;;;;;39.28;14.90;;;0.80;99.90;;;0.60;64.26;99935.63;4998875;28;20069;-82
2022/01/19 07:24:48;;;;;;;40.40;14.43;;;0.90;99.90;;;0.65;64.37;99934.06;5018495;28;20040;-81
2022/01/19 07:27:14;;;;;;;27.27;12.05;;;0.90;99.90;;;0.62;64.23;99929.09;5022329;28;20110;-81
2022/01/19 07:29:40;;;;;;;30.17;13.98;;;0.90;99.90;;;0.69;64.30;99928.38;5018647;28;20142;-82
2022/01/19 07:32:07;;;;;;;31.77;14.60;;;0.90;99.90;;;0.70;64.53;99924.72;5013372;28;20040;-82
2022/01/19 07:34:33;;;;;;;38.15;15.60;;;1.00;99.90;;;0.70;64.11;99930.88;5032539;28;20847;-82
2022/01/19 07:36:59;;;;;;;46.65;17.65;;;1.00;99.90;;;0.76;64.14;99931.97;5030633;28;20091;-82
2022/01/19 07:39:25;;;;;;;38.88;16.67;;;1.00;99.90;;;0.80;64.03;99926.09;5013079;28;20144;-82
2022/01/19 07:41:53;;;;;;;35.20;15.65;;;1.10;99.90;;;0.88;64.65;99922.50;5032294;28;20052;-82
2022/01/19 07:44:19;;;;;;;46.47;16.50;;;1.10;99.90;;;0.97;64.20;99921.41;5031027;28;20496;-82
2022/01/19 07:46:45;;;;;;;55.80;20.83;;;1.20;99.90;;;1.04;63.80;99932.19;5032160;28;20112;-82
2022/01/19 07:49:11;;;;;;;49.03;18.50;;;1.30;99.90;;;1.15;64.21;99917.56;5013657;28;20053;-82
2022/01/19 07:51:37;;;;;;;44.67;17.77;;;1.40;99.90;;;1.24;63.87;99911.91;5002907;28;20029;-82
2022/01/19 07:54:03;;;;;;;51.10;19.25;;;1.50;99.90;;;1.29;63.42;99908.69;5017468;28;20075;-83
2022/01/19 07:56:29;;;;;;;57.17;20.30;;;1.60;99.90;;;1.39;63.55;99901.19;5030854;28;20041;-83
2022/01/19 07:58:55;;;;;;;46.40;19.13;;;1.60;99.90;;;1.46;63.27;99910.13;5001282;28;20062;-82
2022/01/19 08:01:22;;;;;;;46.08;21.08;;;1.70;99.90;;;1.52;63.18;99896.00;5016186;28;20804;-82
2022/01/19 08:03:48;;;;;;;59.92;21.42;;;1.70;99.90;;;1.50;62.35;99890.03;5017122;28;20051;-82
2022/01/19 08:06:14;;;;;;;52.95;19.83;;;1.80;99.90;;;1.51;63.14;99896.22;4977378;28;20754;-81
2022/01/19 08:08:40;;;;;;;56.15;20.13;;;1.90;99.90;;;1.54;63.14;99885.13;5028535;28;20618;-82
2022/01/19 08:11:06;;;;;;;47.92;20.33;;;1.90;99.90;;;1.65;63.33;99881.94;4998427;28;20045;-82
2022/01/19 08:13:32;;;;;;;47.05;18.58;;;2.00;99.90;;;1.70;62.41;99882.22;5033551;28;20060;-82
2022/01/19 08:15:58;;;;;;;49.83;18.90;;;2.00;99.90;;;1.72;62.21;99874.81;5022635;28;20056;-82
2022/01/19 08:18:24;;;;;;;55.03;18.80;;;2.00;99.90;;;1.74;62.45;99874.66;5033603;28;20144;-82
2022/01/19 08:20:50;;;;;;;52.50;19.98;;;2.00;99.90;;;1.77;62.45;99884.97;5019371;28;20095;-82
2022/01/19 08:23:22;;;;;;;43.95;20.50;;;2.10;99.90;;;1.92;62.45;99876.88;5012945;28;20130;-82
2022/01/19 08:25:48;;;;;;;50.78;19.45;;;2.10;99.90;;;1.94;62.21;99875.69;5014619;28;20107;-82
2022/01/19 08:28:14;;;;;;;46.63;19.80;;;2.20;99.90;;;2.06;62.43;99864.44;5017737;28;20048;-82
2022/01/19 08:30:40;;;;;;;46.97;18.55;;;2.30;99.90;;;2.17;61.30;99859.41;5014985;28;20045;-82
2022/01/19 08:33:07;;;;;;;46.83;18.90;;;2.50;99.90;;;2.14;60.91;99861.66;5014776;28;20124;-82
2022/01/19 08:35:33;;;;;;;51.67;19.92;;;2.50;99.90;;;2.24;60.84;99848.78;5050115;28;20159;-82
2022/01/19 08:37:59;;;;;;;43.17;19.25;;;2.50;99.90;;;2.30;60.60;99853.34;5001523;28;20041;-82
2022/01/19 08:40:29;;;;;;;38.47;17.60;;;2.60;99.90;;;2.32;61.04;99845.13;5033581;28;20076;-82
2022/01/19 08:42:56;;;;;;;49.38;19.38;;;2.60;99.90;;;2.38;60.64;99834.44;5020303;28;20528;-80
2022/01/19 08:45:22;;;;;;;50.10;18.63;;;2.70;99.90;;;2.46;59.92;99830.78;5034506;28;20072;-80
2022/01/19 08:47:48;;;;;;;36.00;17.92;;;2.70;99.90;;;2.49;59.43;99821.53;5032989;28;20033;-80
2022/01/19 08:50:15;;;;;;;36.42;15.35;;;2.80;99.90;;;2.52;59.86;99834.53;5035260;28;20044;-80
2022/01/19 08:52:43;;;;;;;35.67;14.95;;;2.80;99.90;;;2.61;59.63;99825.31;5021219;28;20075;-81
2022/01/19 08:55:09;;;;;;;36.22;13.52;;;2.80;99.90;;;2.68;59.53;99818.16;5020947;28;20049;-80
2022/01/19 08:57:35;;;;;;;39.33;16.00;;;2.90;99.90;;;2.72;59.06;99814.09;5035853;28;20059;-80
2022/01/19 09:00:05;;;;;;;36.58;16.30;;;3.00;99.90;;;2.76;59.20;99809.13;5020009;28;20037;-80
2022/01/19 09:02:32;;;;;;;38.80;16.17;;;3.00;99.90;;;2.76;58.32;99793.06;5037418;28;20057;-80
2022/01/19 09:04:58;;;;;;;30.83;13.43;;;3.00;99.90;;;2.87;58.54;99786.31;5022514;28;20086;-80
2022/01/19 09:07:24;;;;;;;43.45;16.52;;;3.10;99.90;;;2.96;59.40;99787.81;5037106;28;20128;-81
2022/01/19 09:09:50;;;;;;;32.35;15.07;;;3.20;99.90;;;3.06;58.60;99793.63;5021031;28;20120;-80
2022/01/19 09:12:16;;;;;;;32.83;13.18;;;3.30;99.90;;;3.05;57.76;99789.25;5023521;28;20041;-81
2022/01/19 09:14:42;;;;;;;32.90;15.02;;;3.30;99.90;;;3.07;57.53;99789.91;5018482;28;20068;-80
2022/01/19 09:17:08;;;;;;;34.70;15.27;;;3.30;99.90;;;3.04;57.59;99787.63;5003111;28;20451;-80
2022/01/19 09:19:35;;;;;;;27.75;13.45;;;3.40;99.90;;;3.11;58.23;99791.16;5054579;28;20583;-81
2022/01/19 09:22:03;;;;;;;26.67;12.65;;;3.40;99.90;;;3.14;57.78;99782.72;5018395;28;20072;-81
2022/01/19 09:24:30;;;;;;;36.10;14.65;;;3.50;99.90;;;3.22;57.57;99776.34;5018827;28;20041;-81
2022/01/19 09:26:56;;;;;;;26.05;13.13;;;3.60;99.90;;;3.29;57.58;99781.72;5037358;28;20052;-81
2022/01/19 09:29:22;;;;;;;32.70;13.88;;;3.60;99.90;;;3.26;57.77;99767.69;5020520;28;20113;-81
2022/01/19 09:31:48;;;;;;;29.27;13.27;;;3.60;99.90;;;3.34;58.41;99768.53;5024083;28;20037;-81
2022/01/19 09:34:19;;;;;;;28.23;14.57;;;3.60;99.90;;;3.46;57.64;99757.00;5035410;28;20069;-81
2022/01/19 09:36:48;;;;;;;27.60;12.27;;;3.70;99.90;;;3.52;57.42;99759.91;5052268;28;20045;-81
2022/01/19 09:39:21;;;;;;;30.90;13.50;;;3.80;99.90;;;3.58;57.10;99751.84;5036401;28;20076;-81
2022/01/19 09:41:49;;;;;;;30.95;15.20;;;3.80;99.90;;;3.66;56.96;99740.94;5047630;28;20068;-81
2022/01/19 09:44:17;;;;;;;25.17;14.85;;;3.90;99.90;;;3.83;57.25;99740.53;5014113;28;20057;-83
2022/01/19 09:46:43;;;;;;;32.92;15.93;;;4.00;99.90;;;3.95;56.01;99736.19;5032845;28;20040;-83
2022/01/19 09:49:11;;;;;;;31.83;15.00;;;4.10;99.90;;;4.01;55.94;99739.91;5036545;28;20079;-83
2022/01/19 09:51:40;;;;;;;36.17;15.55;;;4.20;99.90;;;4.07;56.24;99726.47;5017324;28;20041;-83
2022/01/19 09:54:06;;;;;;;28.20;15.82;;;4.40;99.90;;;4.21;56.25;99723.75;5035819;28;20743;-83
2022/01/19 09:56:32;;;;;;;31.73;14.18;;;4.40;99.90;;;4.29;55.17;99723.53;5019331;28;20037;-83
2022/01/19 09:58:58;;;;;;;26.75;14.57;;;4.50;99.90;;;4.32;55.04;99715.88;5017654;28;20095;-83
2022/01/19 10:01:25;;;;;;;31.13;14.90;;;4.60;99.90;;;4.37;55.13;99711.75;5015373;28;20090;-84
2022/01/19 10:03:53;;;;;;;28.33;14.15;;;4.70;99.90;;;4.48;55.05;99711.94;5015618;28;20045;-84
2022/01/19 10:06:22;;;;;;;28.75;15.68;;;4.70;99.90;;;4.60;55.20;99700.50;5014673;28;20036;-84
2022/01/19 10:08:54;;;;;;;33.38;15.95;;;4.90;99.90;;;4.68;54.88;99701.13;5016415;28;20033;-84
2022/01/19 10:17:00;;;;;;;33.10;13.70;;;5.10;99.90;;;4.78;53.95;99676.44;5033733;28;20037;-84
2022/01/19 10:19:50;;;;;;;35.97;14.30;;;5.10;99.90;;;4.60;53.35;99682.50;5027807;28;20075;-85
2022/01/19 10:22:20;;;;;;;25.60;12.43;;;5.00;99.90;;;4.70;54.56;99668.63;5044277;28;20123;-85
2022/01/19 10:24:53;;;;;;;26.27;14.23;;;5.00;99.90;;;4.79;54.18;99675.41;5027791;28;20128;-85
2022/01/19 10:27:42;;;;;;;20.75;12.38;;;5.10;99.90;;;4.89;53.85;99669.59;5043963;28;20057;-84
2022/01/19 10:30:08;;;;;;;20.88;12.10;;;5.20;99.90;;;4.82;53.42;99669.59;5016455;28;20033;-84
2022/01/19 10:32:42;;;;;;;25.77;12.55;;;5.20;99.90;;;4.84;53.02;99651.41;5049626;28;20506;-84
2022/01/19 10:35:20;;;;;;;29.20;12.43;;;5.20;99.90;;;4.89;53.02;99653.44;5015906;28;20051;-84
2022/01/19 10:38:27;;;;;;;26.38;13.50;;;5.20;99.90;;;4.97;54.18;99655.88;5048006;28;20068;-84
2022/01/19 10:40:58;;;;;;;31.67;13.07;;;5.20;99.90;;;5.04;53.72;99642.38;5022200;28;20408;-83
2022/01/19 10:43:29;;;;;;;21.15;12.07;;;5.30;99.90;;;5.11;53.78;99635.09;5050273;28;20049;-84
2022/01/19 10:45:57;;;;;;;38.65;16.58;;;5.30;99.90;;;5.04;53.79;99631.63;5035354;28;20033;-86
2022/01/19 10:48:37;;;;;;;50.55;18.75;;;5.30;99.90;;;4.97;54.23;99629.81;5044461;28;20386;-85
2022/01/19 10:51:13;;;;;;;27.05;13.35;;;5.30;99.90;;;4.79;54.51;99619.78;4996199;28;20051;-85
2022/01/19 10:53:42;;;;;;;42.65;17.83;;;5.30;99.90;;;4.63;54.76;99623.00;5011713;28;20037;-85
2022/01/19 10:56:29;;;;;;;29.55;14.88;;;5.10;99.90;;;4.47;55.23;99610.84;5029962;28;20454;-85
2022/01/19 10:59:00;;;;;;;23.65;12.73;;;4.90;99.90;;;4.63;55.58;99601.50;4997600;28;20113;-85
2022/01/19 11:01:49;;;;;;;23.13;13.45;;;4.90;99.90;;;4.66;54.39;99608.31;5014104;28;20041;-85
2022/01/19 11:04:30;;;;;;;47.47;18.05;;;4.90;99.90;;;4.61;55.38;99605.44;5028694;28;20067;-84
2022/01/19 11:07:16;;;;;;;32.10;13.93;;;4.90;99.90;;;4.52;54.92;99594.91;5045208;28;20045;-85
2022/01/19 11:09:56;;;;;;;29.20;14.95;;;4.80;99.90;;;4.57;55.10;99595.09;5015395;28;20036;-85
2022/01/19 11:12:26;;;;;;;22.73;11.98;;;4.80;99.90;;;4.63;55.15;99593.44;5001149;28;20079;-85
2022/01/19 11:14:52;;;;;;;28.08;13.25;;;4.90;99.90;;;4.60;55.08;99579.59;5010487;28;20045;-85
2022/01/19 11:17:19;;;;;;;34.53;14.80;;;4.90;99.90;;;4.61;54.85;99581.25;5012160;28;20057;-85
2022/01/19 11:19:49;;;;;;;26.20;13.07;;;4.90;99.90;;;4.58;55.56;99585.19;4997131;28;20033;-85
2022/01/19 11:22:52;;;;;;;27.45;13.77;;;4.80;99.90;;;4.51;55.25;99571.78;4994142;28;20131;-84
2022/01/19 11:25:49;;;;;;;27.35;13.40;;;4.80;99.90;;;4.51;55.20;99563.72;5038735;28;20463;-84
2022/01/19 11:28:49;;;;;;;24.30;12.93;;;4.70;99.90;;;4.50;55.18;99554.03;5037631;28;20048;-84
2022/01/19 11:31:19;;;;;;;24.90;13.32;;;4.80;99.90;;;4.51;55.55;99555.66;5017873;28;20408;-84
2022/01/19 11:33:56;;;;;;;29.80;14.73;;;4.80;99.90;;;4.40;56.18;99552.81;5015255;28;20466;-84
2022/01/19 11:36:25;;;;;;;18.88;12.23;;;4.70;99.90;;;4.30;55.85;99548.75;5017358;28;20688;-84
2022/01/19 11:38:53;;;;;;;31.58;14.73;;;4.60;99.90;;;4.24;56.32;99544.22;5032145;28;20037;-84
2022/01/19 11:41:20;;;;;;;30.83;13.52;;;4.50;99.90;;;4.29;57.07;99535.53;5014222;28;20314;-84
2022/01/19 11:43:54;;;;;;;23.40;13.07;;;4.50;99.90;;;4.34;57.02;99527.66;5047081;28;20045;-84
2022/01/19 11:46:34;;;;;;;27.60;13.93;;;4.60;99.90;;;4.37;55.79;99521.84;4995961;28;20084;-84
2022/01/19 11:49:04;;;;;;;28.58;11.80;;;4.60;99.90;;;4.29;56.53;99514.03;5050735;28;20068;-84